Tri-State/Milton J. Ferguson Field
KHTS : now visible

Airfield :











YOU CAN JOIN US ON...

 
LOGIN :

Register | Disclaimer

   EN    FR    IT 

 









Legend :    VFR   Marginal VFR   IFR   Intensive IFR   Very Intensive IFR
Visi :
Ceiling :
>= 8 km
>= 3000ft
5 to 8 km
1000 to 3000 ft
1500m to 5 km
500 to 1000 ft
800 to 1500m
200 to 500 ft
< 800m
< 200 ft
Symbols :   Thunderstorms  Fog  Heavy snow  Heavy precipitations  Wind > 20 kt






- Airport Elevation : 828 ft
- IATA code : HTS


KHTS - Tri-State/Milton J. Ferguson Field

CURRENT METAR :
  • 172251Z 26010KT 6SM HZ OVC016 M02/M05 A2985 RMK AO2 SLP116 T10221050

EXPIRED METARs :
  • 172209Z 27007G20KT 6SM HZ OVC016 M02/M05 A2983 RMK AO2 T10221050
  • 172151Z 27010G16KT 230V300 5SM HZ OVC014 M02/M05 A2982 RMK AO2 SLP104 T10221050
  • 172131Z 26010KT 6SM BR OVC013 M02/M04 A2981 RMK AO2 T10221044
  • 172051Z 27011G16KT 5SM HZ OVC015 M02/M05 A2978 RMK AO2 UPB07E22B32E42 SLP092 P0000 60000 T10221050 53013
  • 172023Z 27007G17KT 5SM HZ OVC015 M02/M05 A2977 RMK AO2 UPB07E22 P0000 T10221050
  • 171951Z 25010KT 6SM HZ OVC014 M02/M05 A2975 RMK AO2 SNE32 SLP083 P0000 T10221050

TAF KHTS
Valid from the 17 at 21:00 until the 18 at 18:00 UTC


172111Z 1721/1818 27011G17KT 5SM -SHSN OVC014
FM180000 27011G17KT P6SM -SHSN OVC025
FM180500 25007KT P6SM BKN024
FM181400 22005KT P6SM BKN019
FM181700 22006KT P6SM SCT040
KZID FIR / North America



MET'MAP, your aeronautical weather chart ! - Copyright ORBIFLY December 2007 - Disclaimer

ORBIFLY MET'MAP TEAM :

Programming & Development : Alexandra Zaïnal
Concept & original design : Baudouin d'Aumeries
Assistance for programming : Marc-Olivier Méhu
Technical & hardware support : Manuel Goepfert

Contact : metmap@orbifly.com




SOURCES & CREDITS :

   NOAA       Earth
Advisory